sensor_id;sensor_type;location;lat;lon;timestamp;P1;durP1;ratioP1;P2;durP2;ratioP2
74229;SDS011;62589;12.568;99.958;2023-09-18T00:01:00;3.13;;;0.80;;
74229;SDS011;62589;12.568;99.958;2023-09-18T00:03:26;2.80;;;1.08;;
74229;SDS011;62589;12.568;99.958;2023-09-18T00:05:53;2.47;;;0.80;;
74229;SDS011;62589;12.568;99.958;2023-09-18T00:08:19;2.55;;;1.02;;
74229;SDS011;62589;12.568;99.958;2023-09-18T00:10:49;4.03;;;1.10;;
74229;SDS011;62589;12.568;99.958;2023-09-18T00:13:18;2.38;;;1.15;;
74229;SDS011;62589;12.568;99.958;2023-09-18T00:15:45;3.28;;;1.10;;
74229;SDS011;62589;12.568;99.958;2023-09-18T00:18:14;2.95;;;1.08;;
74229;SDS011;62589;12.568;99.958;2023-09-18T00:20:41;3.35;;;1.30;;
74229;SDS011;62589;12.568;99.958;2023-09-18T00:23:09;6.13;;;0.77;;
74229;SDS011;62589;12.568;99.958;2023-09-18T00:25:35;2.05;;;1.20;;
74229;SDS011;62589;12.568;99.958;2023-09-18T00:28:03;2.33;;;1.02;;
74229;SDS011;62589;12.568;99.958;2023-09-18T00:30:30;2.58;;;1.10;;
74229;SDS011;62589;12.568;99.958;2023-09-18T00:32:56;4.07;;;1.13;;
74229;SDS011;62589;12.568;99.958;2023-09-18T00:35:23;2.75;;;1.10;;
74229;SDS011;62589;12.568;99.958;2023-09-18T00:37:49;2.78;;;1.08;;
74229;SDS011;62589;12.568;99.958;2023-09-18T00:40:19;1.83;;;0.88;;
74229;SDS011;62589;12.568;99.958;2023-09-18T00:42:45;2.97;;;0.88;;
74229;SDS011;62589;12.568;99.958;2023-09-18T00:45:12;1.48;;;0.90;;
74229;SDS011;62589;12.568;99.958;2023-09-18T00:47:38;2.65;;;1.25;;
74229;SDS011;62589;12.568;99.958;2023-09-18T00:50:05;3.80;;;1.20;;
74229;SDS011;62589;12.568;99.958;2023-09-18T00:52:35;1.52;;;0.95;;
74229;SDS011;62589;12.568;99.958;2023-09-18T00:55:02;1.75;;;1.10;;
74229;SDS011;62589;12.568;99.958;2023-09-18T00:57:28;2.13;;;1.10;;
74229;SDS011;62589;12.568;99.958;2023-09-18T00:59:55;2.90;;;1.25;;
74229;SDS011;62589;12.568;99.958;2023-09-18T01:02:22;3.70;;;1.08;;
74229;SDS011;62589;12.568;99.958;2023-09-18T01:04:49;1.60;;;0.88;;
74229;SDS011;62589;12.568;99.958;2023-09-18T01:07:15;2.40;;;1.00;;
74229;SDS011;62589;12.568;99.958;2023-09-18T01:09:43;2.13;;;1.05;;
74229;SDS011;62589;12.568;99.958;2023-09-18T01:12:17;3.17;;;0.90;;
74229;SDS011;62589;12.568;99.958;2023-09-18T01:15:09;2.13;;;0.98;;
74229;SDS011;62589;12.568;99.958;2023-09-18T01:17:40;2.35;;;0.73;;
74229;SDS011;62589;12.568;99.958;2023-09-18T01:20:11;1.65;;;0.65;;
74229;SDS011;62589;12.568;99.958;2023-09-18T01:22:37;2.83;;;0.73;;
74229;SDS011;62589;12.568;99.958;2023-09-18T01:25:04;2.63;;;0.90;;
74229;SDS011;62589;12.568;99.958;2023-09-18T01:27:32;2.25;;;0.73;;
74229;SDS011;62589;12.568;99.958;2023-09-18T01:29:58;2.72;;;1.00;;
74229;SDS011;62589;12.568;99.958;2023-09-18T01:32:26;2.25;;;0.75;;
74229;SDS011;62589;12.568;99.958;2023-09-18T01:34:56;4.85;;;1.20;;
74229;SDS011;62589;12.568;99.958;2023-09-18T01:37:26;2.65;;;0.95;;
74229;SDS011;62589;12.568;99.958;2023-09-18T01:39:54;1.85;;;0.73;;
74229;SDS011;62589;12.568;99.958;2023-09-18T01:42:25;0.93;;;0.93;;
74229;SDS011;62589;12.568;99.958;2023-09-18T01:44:53;2.33;;;1.00;;
74229;SDS011;62589;12.568;99.958;2023-09-18T01:47:20;1.35;;;0.70;;
74229;SDS011;62589;12.568;99.958;2023-09-18T01:49:48;2.80;;;1.08;;
74229;SDS011;62589;12.568;99.958;2023-09-18T01:52:15;2.60;;;0.80;;
74229;SDS011;62589;12.568;99.958;2023-09-18T01:54:42;1.63;;;0.93;;
74229;SDS011;62589;12.568;99.958;2023-09-18T01:57:09;1.70;;;0.63;;
74229;SDS011;62589;12.568;99.958;2023-09-18T01:59:37;3.75;;;1.08;;
74229;SDS011;62589;12.568;99.958;2023-09-18T02:02:04;2.40;;;0.60;;
74229;SDS011;62589;12.568;99.958;2023-09-18T02:04:35;3.38;;;1.30;;
74229;SDS011;62589;12.568;99.958;2023-09-18T02:07:02;1.38;;;0.90;;
74229;SDS011;62589;12.568;99.958;2023-09-18T02:09:28;1.77;;;0.60;;
74229;SDS011;62589;12.568;99.958;2023-09-18T02:11:55;2.53;;;0.70;;
74229;SDS011;62589;12.568;99.958;2023-09-18T02:14:21;1.90;;;0.85;;
74229;SDS011;62589;12.568;99.958;2023-09-18T02:16:48;6.70;;;0.85;;
74229;SDS011;62589;12.568;99.958;2023-09-18T02:19:14;2.13;;;0.75;;
74229;SDS011;62589;12.568;99.958;2023-09-18T02:21:42;1.45;;;0.60;;
74229;SDS011;62589;12.568;99.958;2023-09-18T02:24:09;1.70;;;0.80;;
74229;SDS011;62589;12.568;99.958;2023-09-18T02:26:35;3.50;;;0.95;;
74229;SDS011;62589;12.568;99.958;2023-09-18T02:29:06;1.73;;;0.80;;
74229;SDS011;62589;12.568;99.958;2023-09-18T02:31:36;2.05;;;0.93;;
74229;SDS011;62589;12.568;99.958;2023-09-18T02:34:03;2.17;;;0.60;;
74229;SDS011;62589;12.568;99.958;2023-09-18T02:36:30;2.33;;;0.70;;
74229;SDS011;62589;12.568;99.958;2023-09-18T02:38:56;2.15;;;0.60;;
74229;SDS011;62589;12.568;99.958;2023-09-18T02:41:23;3.72;;;0.80;;
74229;SDS011;62589;12.568;99.958;2023-09-18T02:43:49;1.25;;;0.73;;
74229;SDS011;62589;12.568;99.958;2023-09-18T02:46:16;1.60;;;0.70;;
74229;SDS011;62589;12.568;99.958;2023-09-18T02:48:42;2.08;;;0.85;;
74229;SDS011;62589;12.568;99.958;2023-09-18T02:51:09;1.05;;;0.70;;
74229;SDS011;62589;12.568;99.958;2023-09-18T02:53:35;1.58;;;0.80;;
74229;SDS011;62589;12.568;99.958;2023-09-18T02:56:02;1.67;;;0.80;;
74229;SDS011;62589;12.568;99.958;2023-09-18T02:58:28;2.05;;;0.88;;
74229;SDS011;62589;12.568;99.958;2023-09-18T03:00:56;1.50;;;0.80;;
74229;SDS011;62589;12.568;99.958;2023-09-18T03:03:28;1.95;;;0.80;;
74229;SDS011;62589;12.568;99.958;2023-09-18T03:05:59;2.50;;;0.90;;
74229;SDS011;62589;12.568;99.958;2023-09-18T03:08:28;0.63;;;0.50;;
74229;SDS011;62589;12.568;99.958;2023-09-18T03:10:54;2.63;;;0.73;;
74229;SDS011;62589;12.568;99.958;2023-09-18T03:13:21;3.80;;;0.82;;
74229;SDS011;62589;12.568;99.958;2023-09-18T03:15:48;1.98;;;0.60;;
74229;SDS011;62589;12.568;99.958;2023-09-18T03:18:15;1.95;;;0.77;;
74229;SDS011;62589;12.568;99.958;2023-09-18T03:20:41;2.22;;;0.70;;
74229;SDS011;62589;12.568;99.958;2023-09-18T03:23:07;3.38;;;1.02;;
74229;SDS011;62589;12.568;99.958;2023-09-18T03:25:34;2.25;;;0.75;;
74229;SDS011;62589;12.568;99.958;2023-09-18T03:28:03;0.93;;;0.68;;
74229;SDS011;62589;12.568;99.958;2023-09-18T03:30:30;2.05;;;0.55;;
74229;SDS011;62589;12.568;99.958;2023-09-18T03:32:59;1.67;;;0.40;;
74229;SDS011;62589;12.568;99.958;2023-09-18T03:35:28;1.10;;;0.22;;
74229;SDS011;62589;12.568;99.958;2023-09-18T03:37:57;2.88;;;0.60;;
74229;SDS011;62589;12.568;99.958;2023-09-18T03:40:23;1.40;;;0.60;;
74229;SDS011;62589;12.568;99.958;2023-09-18T03:42:50;1.55;;;0.40;;
74229;SDS011;62589;12.568;99.958;2023-09-18T03:45:16;1.50;;;0.45;;
74229;SDS011;62589;12.568;99.958;2023-09-18T03:47:44;1.23;;;0.38;;
74229;SDS011;62589;12.568;99.958;2023-09-18T03:50:11;0.80;;;0.28;;
74229;SDS011;62589;12.568;99.958;2023-09-18T03:52:38;1.00;;;0.50;;
74229;SDS011;62589;12.568;99.958;2023-09-18T03:55:08;2.03;;;0.50;;
74229;SDS011;62589;12.568;99.958;2023-09-18T03:57:35;1.17;;;0.40;;
74229;SDS011;62589;12.568;99.958;2023-09-18T04:00:03;1.17;;;0.10;;
74229;SDS011;62589;12.568;99.958;2023-09-18T04:02:30;1.40;;;0.50;;
74229;SDS011;62589;12.568;99.958;2023-09-18T04:04:56;0.55;;;0.30;;
74229;SDS011;62589;12.568;99.958;2023-09-18T04:07:23;1.88;;;0.40;;
74229;SDS011;62589;12.568;99.958;2023-09-18T04:09:49;5.47;;;0.50;;
74229;SDS011;62589;12.568;99.958;2023-09-18T04:12:16;2.00;;;0.40;;
74229;SDS011;62589;12.568;99.958;2023-09-18T04:14:43;1.52;;;0.50;;
74229;SDS011;62589;12.568;99.958;2023-09-18T04:17:09;1.30;;;0.38;;
74229;SDS011;62589;12.568;99.958;2023-09-18T04:19:36;1.77;;;0.70;;
74229;SDS011;62589;12.568;99.958;2023-09-18T04:22:02;1.70;;;0.73;;
74229;SDS011;62589;12.568;99.958;2023-09-18T04:24:29;1.77;;;0.60;;
74229;SDS011;62589;12.568;99.958;2023-09-18T04:26:55;3.83;;;0.73;;
74229;SDS011;62589;12.568;99.958;2023-09-18T04:29:21;3.05;;;0.52;;
74229;SDS011;62589;12.568;99.958;2023-09-18T04:31:48;2.97;;;0.60;;
74229;SDS011;62589;12.568;99.958;2023-09-18T04:34:14;2.00;;;0.90;;
74229;SDS011;62589;12.568;99.958;2023-09-18T04:36:41;1.63;;;0.75;;
74229;SDS011;62589;12.568;99.958;2023-09-18T04:39:09;2.13;;;0.60;;
74229;SDS011;62589;12.568;99.958;2023-09-18T04:41:35;2.03;;;0.80;;
74229;SDS011;62589;12.568;99.958;2023-09-18T04:44:02;2.22;;;0.70;;
74229;SDS011;62589;12.568;99.958;2023-09-18T04:46:30;3.65;;;0.80;;
74229;SDS011;62589;12.568;99.958;2023-09-18T04:48:56;2.30;;;0.90;;
74229;SDS011;62589;12.568;99.958;2023-09-18T04:51:23;3.20;;;0.93;;
74229;SDS011;62589;12.568;99.958;2023-09-18T04:53:49;1.77;;;0.90;;
74229;SDS011;62589;12.568;99.958;2023-09-18T04:56:17;1.75;;;0.90;;
74229;SDS011;62589;12.568;99.958;2023-09-18T04:58:44;2.05;;;1.00;;
74229;SDS011;62589;12.568;99.958;2023-09-18T05:01:11;2.40;;;1.08;;
74229;SDS011;62589;12.568;99.958;2023-09-18T05:03:37;1.15;;;0.90;;
74229;SDS011;62589;12.568;99.958;2023-09-18T05:06:04;3.60;;;0.90;;
74229;SDS011;62589;12.568;99.958;2023-09-18T05:08:30;1.85;;;1.05;;
74229;SDS011;62589;12.568;99.958;2023-09-18T05:10:57;2.47;;;0.93;;
74229;SDS011;62589;12.568;99.958;2023-09-18T05:13:23;1.33;;;0.73;;
74229;SDS011;62589;12.568;99.958;2023-09-18T05:15:50;2.63;;;0.90;;
74229;SDS011;62589;12.568;99.958;2023-09-18T05:18:16;3.35;;;0.80;;
74229;SDS011;62589;12.568;99.958;2023-09-18T05:20:43;4.35;;;0.52;;
74229;SDS011;62589;12.568;99.958;2023-09-18T05:23:09;5.63;;;1.30;;
74229;SDS011;62589;12.568;99.958;2023-09-18T05:25:36;1.88;;;0.70;;
74229;SDS011;62589;12.568;99.958;2023-09-18T05:28:04;2.63;;;0.90;;
74229;SDS011;62589;12.568;99.958;2023-09-18T05:30:32;3.95;;;0.90;;
74229;SDS011;62589;12.568;99.958;2023-09-18T05:33:03;3.25;;;0.80;;
74229;SDS011;62589;12.568;99.958;2023-09-18T05:35:36;3.80;;;1.00;;
74229;SDS011;62589;12.568;99.958;2023-09-18T05:38:10;2.38;;;0.82;;
74229;SDS011;62589;12.568;99.958;2023-09-18T05:40:43;3.40;;;0.90;;
74229;SDS011;62589;12.568;99.958;2023-09-18T05:43:10;2.58;;;1.25;;
74229;SDS011;62589;12.568;99.958;2023-09-18T05:45:37;1.27;;;0.70;;
74229;SDS011;62589;12.568;99.958;2023-09-18T05:48:04;3.55;;;0.90;;
74229;SDS011;62589;12.568;99.958;2023-09-18T05:50:31;4.32;;;0.90;;
74229;SDS011;62589;12.568;99.958;2023-09-18T05:53:03;2.85;;;1.60;;
74229;SDS011;62589;12.568;99.958;2023-09-18T05:55:33;1.95;;;0.90;;
74229;SDS011;62589;12.568;99.958;2023-09-18T05:58:03;4.50;;;1.52;;
74229;SDS011;62589;12.568;99.958;2023-09-18T06:00:33;3.80;;;1.27;;
74229;SDS011;62589;12.568;99.958;2023-09-18T06:03:00;2.40;;;1.08;;
74229;SDS011;62589;12.568;99.958;2023-09-18T06:05:31;2.58;;;1.10;;
74229;SDS011;62589;12.568;99.958;2023-09-18T06:08:04;3.22;;;1.15;;
74229;SDS011;62589;12.568;99.958;2023-09-18T06:10:31;4.90;;;1.20;;
74229;SDS011;62589;12.568;99.958;2023-09-18T06:12:57;3.20;;;1.13;;
74229;SDS011;62589;12.568;99.958;2023-09-18T06:15:32;4.43;;;1.35;;
74229;SDS011;62589;12.568;99.958;2023-09-18T06:17:58;3.53;;;1.10;;
74229;SDS011;62589;12.568;99.958;2023-09-18T06:20:29;1.90;;;1.38;;
74229;SDS011;62589;12.568;99.958;2023-09-18T06:22:59;3.50;;;1.20;;
74229;SDS011;62589;12.568;99.958;2023-09-18T06:25:28;2.17;;;1.20;;
74229;SDS011;62589;12.568;99.958;2023-09-18T06:27:59;2.38;;;1.20;;
74229;SDS011;62589;12.568;99.958;2023-09-18T06:30:28;3.22;;;1.20;;
74229;SDS011;62589;12.568;99.958;2023-09-18T06:32:56;2.65;;;1.40;;
74229;SDS011;62589;12.568;99.958;2023-09-18T06:35:22;5.25;;;1.48;;
74229;SDS011;62589;12.568;99.958;2023-09-18T06:37:49;2.42;;;0.88;;
74229;SDS011;62589;12.568;99.958;2023-09-18T06:40:15;4.50;;;0.85;;
74229;SDS011;62589;12.568;99.958;2023-09-18T06:42:48;3.47;;;1.58;;
74229;SDS011;62589;12.568;99.958;2023-09-18T06:45:15;2.90;;;0.85;;
74229;SDS011;62589;12.568;99.958;2023-09-18T06:47:41;3.90;;;1.10;;
74229;SDS011;62589;12.568;99.958;2023-09-18T06:50:08;2.47;;;0.90;;
74229;SDS011;62589;12.568;99.958;2023-09-18T06:52:35;2.25;;;0.90;;
74229;SDS011;62589;12.568;99.958;2023-09-18T06:55:01;2.08;;;0.68;;
74229;SDS011;62589;12.568;99.958;2023-09-18T06:57:28;3.20;;;1.02;;
74229;SDS011;62589;12.568;99.958;2023-09-18T06:59:54;3.95;;;1.20;;
74229;SDS011;62589;12.568;99.958;2023-09-18T07:02:21;2.03;;;0.85;;
74229;SDS011;62589;12.568;99.958;2023-09-18T07:04:48;4.57;;;1.40;;
74229;SDS011;62589;12.568;99.958;2023-09-18T07:07:15;9.07;;;1.55;;
74229;SDS011;62589;12.568;99.958;2023-09-18T07:09:41;4.95;;;1.70;;
74229;SDS011;62589;12.568;99.958;2023-09-18T07:12:08;5.25;;;1.58;;
74229;SDS011;62589;12.568;99.958;2023-09-18T07:14:35;7.80;;;2.78;;
74229;SDS011;62589;12.568;99.958;2023-09-18T07:17:03;11.23;;;2.25;;
74229;SDS011;62589;12.568;99.958;2023-09-18T07:19:30;12.45;;;2.00;;
74229;SDS011;62589;12.568;99.958;2023-09-18T07:21:57;8.38;;;2.08;;
74229;SDS011;62589;12.568;99.958;2023-09-18T07:24:27;2.60;;;1.05;;
74229;SDS011;62589;12.568;99.958;2023-09-18T07:26:53;3.22;;;1.27;;
74229;SDS011;62589;12.568;99.958;2023-09-18T07:29:20;3.28;;;0.90;;
74229;SDS011;62589;12.568;99.958;2023-09-18T07:31:46;3.28;;;0.70;;
74229;SDS011;62589;12.568;99.958;2023-09-18T07:34:13;5.03;;;1.10;;
74229;SDS011;62589;12.568;99.958;2023-09-18T07:36:42;3.50;;;1.30;;
74229;SDS011;62589;12.568;99.958;2023-09-18T07:39:13;4.30;;;1.00;;
74229;SDS011;62589;12.568;99.958;2023-09-18T07:41:39;6.50;;;0.85;;
74229;SDS011;62589;12.568;99.958;2023-09-18T07:44:06;2.38;;;0.88;;
74229;SDS011;62589;12.568;99.958;2023-09-18T07:46:32;5.20;;;0.77;;
74229;SDS011;62589;12.568;99.958;2023-09-18T07:48:59;2.08;;;0.60;;
74229;SDS011;62589;12.568;99.958;2023-09-18T07:51:25;2.55;;;0.60;;
74229;SDS011;62589;12.568;99.958;2023-09-18T07:53:51;3.28;;;0.63;;
74229;SDS011;62589;12.568;99.958;2023-09-18T07:56:18;2.58;;;0.57;;
74229;SDS011;62589;12.568;99.958;2023-09-18T07:58:44;1.77;;;0.32;;
74229;SDS011;62589;12.568;99.958;2023-09-18T08:01:12;3.25;;;0.68;;
74229;SDS011;62589;12.568;99.958;2023-09-18T08:03:41;2.75;;;0.82;;
74229;SDS011;62589;12.568;99.958;2023-09-18T08:06:07;5.80;;;1.10;;
74229;SDS011;62589;12.568;99.958;2023-09-18T08:08:34;3.53;;;0.82;;
74229;SDS011;62589;12.568;99.958;2023-09-18T08:11:06;2.75;;;0.93;;
74229;SDS011;62589;12.568;99.958;2023-09-18T08:13:36;5.03;;;1.30;;
74229;SDS011;62589;12.568;99.958;2023-09-18T08:16:05;3.67;;;0.90;;
74229;SDS011;62589;12.568;99.958;2023-09-18T08:18:32;1.98;;;0.82;;
74229;SDS011;62589;12.568;99.958;2023-09-18T08:21:00;3.63;;;0.80;;
74229;SDS011;62589;12.568;99.958;2023-09-18T08:23:26;1.95;;;0.70;;
74229;SDS011;62589;12.568;99.958;2023-09-18T08:25:53;4.43;;;1.23;;
74229;SDS011;62589;12.568;99.958;2023-09-18T08:28:21;3.22;;;1.35;;
74229;SDS011;62589;12.568;99.958;2023-09-18T08:30:48;2.22;;;1.00;;
74229;SDS011;62589;12.568;99.958;2023-09-18T08:33:14;5.28;;;1.50;;
74229;SDS011;62589;12.568;99.958;2023-09-18T08:35:44;4.60;;;1.33;;
74229;SDS011;62589;12.568;99.958;2023-09-18T08:38:12;2.45;;;0.95;;
74229;SDS011;62589;12.568;99.958;2023-09-18T08:40:40;3.50;;;1.02;;
74229;SDS011;62589;12.568;99.958;2023-09-18T08:43:12;2.53;;;0.68;;
74229;SDS011;62589;12.568;99.958;2023-09-18T08:45:51;1.67;;;0.70;;
74229;SDS011;62589;12.568;99.958;2023-09-18T08:48:20;1.33;;;0.52;;
74229;SDS011;62589;12.568;99.958;2023-09-18T08:50:47;2.58;;;0.30;;
74229;SDS011;62589;12.568;99.958;2023-09-18T08:53:15;1.33;;;0.50;;
74229;SDS011;62589;12.568;99.958;2023-09-18T08:55:41;1.80;;;0.60;;
74229;SDS011;62589;12.568;99.958;2023-09-18T08:58:08;1.85;;;0.32;;
74229;SDS011;62589;12.568;99.958;2023-09-18T09:00:37;1.67;;;0.30;;
74229;SDS011;62589;12.568;99.958;2023-09-18T09:03:04;1.15;;;0.40;;
74229;SDS011;62589;12.568;99.958;2023-09-18T09:05:31;0.88;;;0.20;;
74229;SDS011;62589;12.568;99.958;2023-09-18T09:07:57;2.88;;;0.50;;
74229;SDS011;62589;12.568;99.958;2023-09-18T09:10:24;3.00;;;0.77;;
74229;SDS011;62589;12.568;99.958;2023-09-18T09:12:53;6.55;;;1.58;;
74229;SDS011;62589;12.568;99.958;2023-09-18T09:15:25;4.63;;;1.05;;
74229;SDS011;62589;12.568;99.958;2023-09-18T09:18:02;3.63;;;1.40;;
74229;SDS011;62589;12.568;99.958;2023-09-18T09:20:31;5.70;;;1.60;;
74229;SDS011;62589;12.568;99.958;2023-09-18T09:23:01;3.28;;;1.13;;
74229;SDS011;62589;12.568;99.958;2023-09-18T09:25:29;2.90;;;1.00;;
74229;SDS011;62589;12.568;99.958;2023-09-18T09:28:03;2.47;;;1.02;;
74229;SDS011;62589;12.568;99.958;2023-09-18T09:30:32;3.97;;;0.90;;
74229;SDS011;62589;12.568;99.958;2023-09-18T09:33:02;3.65;;;0.68;;
74229;SDS011;62589;12.568;99.958;2023-09-18T09:35:31;3.47;;;1.02;;
74229;SDS011;62589;12.568;99.958;2023-09-18T09:38:00;3.42;;;0.68;;
74229;SDS011;62589;12.568;99.958;2023-09-18T09:40:32;3.30;;;1.15;;
74229;SDS011;62589;12.568;99.958;2023-09-18T09:43:00;1.38;;;0.60;;
74229;SDS011;62589;12.568;99.958;2023-09-18T09:45:32;2.28;;;0.70;;
74229;SDS011;62589;12.568;99.958;2023-09-18T09:48:01;1.75;;;0.80;;
74229;SDS011;62589;12.568;99.958;2023-09-18T09:50:31;1.92;;;0.82;;
74229;SDS011;62589;12.568;99.958;2023-09-18T09:52:58;2.40;;;0.90;;
74229;SDS011;62589;12.568;99.958;2023-09-18T09:55:29;2.30;;;0.90;;
74229;SDS011;62589;12.568;99.958;2023-09-18T09:57:58;2.40;;;0.80;;
74229;SDS011;62589;12.568;99.958;2023-09-18T10:00:31;2.20;;;0.85;;
74229;SDS011;62589;12.568;99.958;2023-09-18T10:03:16;3.22;;;0.70;;
74229;SDS011;62589;12.568;99.958;2023-09-18T10:05:45;1.55;;;0.85;;
74229;SDS011;62589;12.568;99.958;2023-09-18T10:08:21;2.95;;;1.00;;
74229;SDS011;62589;12.568;99.958;2023-09-18T10:10:49;3.83;;;1.15;;
74229;SDS011;62589;12.568;99.958;2023-09-18T10:13:20;3.63;;;1.23;;
74229;SDS011;62589;12.568;99.958;2023-09-18T10:15:56;4.80;;;1.20;;
74229;SDS011;62589;12.568;99.958;2023-09-18T10:18:28;3.60;;;1.35;;
74229;SDS011;62589;12.568;99.958;2023-09-18T10:21:09;3.92;;;1.02;;
74229;SDS011;62589;12.568;99.958;2023-09-18T10:24:09;2.20;;;1.23;;
74229;SDS011;62589;12.568;99.958;2023-09-18T10:26:56;1.48;;;0.82;;
74229;SDS011;62589;12.568;99.958;2023-09-18T10:29:25;3.20;;;1.00;;
74229;SDS011;62589;12.568;99.958;2023-09-18T10:31:52;1.77;;;0.93;;
74229;SDS011;62589;12.568;99.958;2023-09-18T10:34:19;3.20;;;1.10;;
74229;SDS011;62589;12.568;99.958;2023-09-18T10:36:48;3.40;;;1.00;;
74229;SDS011;62589;12.568;99.958;2023-09-18T10:39:20;0.95;;;0.70;;
74229;SDS011;62589;12.568;99.958;2023-09-18T10:41:53;1.85;;;0.77;;
74229;SDS011;62589;12.568;99.958;2023-09-18T10:44:29;3.30;;;0.98;;
74229;SDS011;62589;12.568;99.958;2023-09-18T10:46:57;1.58;;;0.85;;
74229;SDS011;62589;12.568;99.958;2023-09-18T10:49:25;3.35;;;1.00;;
74229;SDS011;62589;12.568;99.958;2023-09-18T10:51:55;1.63;;;0.77;;
74229;SDS011;62589;12.568;99.958;2023-09-18T10:54:24;1.30;;;0.70;;
74229;SDS011;62589;12.568;99.958;2023-09-18T10:56:51;1.67;;;0.73;;
74229;SDS011;62589;12.568;99.958;2023-09-18T10:59:19;1.25;;;0.60;;
74229;SDS011;62589;12.568;99.958;2023-09-18T11:01:46;2.03;;;0.68;;
74229;SDS011;62589;12.568;99.958;2023-09-18T11:04:18;1.13;;;0.52;;
74229;SDS011;62589;12.568;99.958;2023-09-18T11:09:42;1.08;;;0.65;;
74229;SDS011;62589;12.568;99.958;2023-09-18T11:12:17;1.63;;;0.57;;
74229;SDS011;62589;12.568;99.958;2023-09-18T11:15:10;0.95;;;0.63;;
74229;SDS011;62589;12.568;99.958;2023-09-18T11:17:59;1.80;;;0.75;;
74229;SDS011;62589;12.568;99.958;2023-09-18T11:20:31;1.38;;;0.70;;
74229;SDS011;62589;12.568;99.958;2023-09-18T11:25:44;2.03;;;0.70;;
74229;SDS011;62589;12.568;99.958;2023-09-18T11:28:14;1.77;;;1.00;;
74229;SDS011;62589;12.568;99.958;2023-09-18T11:30:49;3.13;;;0.60;;
74229;SDS011;62589;12.568;99.958;2023-09-18T11:36:08;2.40;;;1.00;;
74229;SDS011;62589;12.568;99.958;2023-09-18T11:41:25;2.08;;;1.05;;
74229;SDS011;62589;12.568;99.958;2023-09-18T11:46:59;2.83;;;0.90;;
74229;SDS011;62589;12.568;99.958;2023-09-18T11:49:26;2.08;;;0.80;;
74229;SDS011;62589;12.568;99.958;2023-09-18T11:51:54;2.38;;;0.82;;
74229;SDS011;62589;12.568;99.958;2023-09-18T11:54:23;2.85;;;1.10;;
74229;SDS011;62589;12.568;99.958;2023-09-18T11:56:50;1.80;;;1.10;;
74229;SDS011;62589;12.568;99.958;2023-09-18T11:59:16;1.35;;;0.90;;
74229;SDS011;62589;12.568;99.958;2023-09-18T12:01:52;2.10;;;1.17;;
74229;SDS011;62589;12.568;99.958;2023-09-18T12:04:29;1.70;;;1.08;;
74229;SDS011;62589;12.568;99.958;2023-09-18T12:06:56;0.98;;;0.90;;
74229;SDS011;62589;12.568;99.958;2023-09-18T12:09:32;1.40;;;1.30;;
74229;SDS011;62589;12.568;99.958;2023-09-18T12:11:59;1.95;;;1.30;;
74229;SDS011;62589;12.568;99.958;2023-09-18T12:14:31;1.48;;;1.23;;
74229;SDS011;62589;12.568;99.958;2023-09-18T12:17:01;2.22;;;1.42;;
74229;SDS011;62589;12.568;99.958;2023-09-18T12:19:29;4.47;;;1.80;;
74229;SDS011;62589;12.568;99.958;2023-09-18T12:21:56;2.35;;;1.45;;
74229;SDS011;62589;12.568;99.958;2023-09-18T12:24:23;2.33;;;1.20;;
74229;SDS011;62589;12.568;99.958;2023-09-18T12:26:53;5.38;;;1.42;;
74229;SDS011;62589;12.568;99.958;2023-09-18T12:29:20;2.50;;;1.20;;
74229;SDS011;62589;12.568;99.958;2023-09-18T12:31:47;3.88;;;1.23;;
74229;SDS011;62589;12.568;99.958;2023-09-18T12:34:18;2.10;;;1.13;;
74229;SDS011;62589;12.568;99.958;2023-09-18T12:36:47;4.30;;;1.40;;
74229;SDS011;62589;12.568;99.958;2023-09-18T12:39:14;2.22;;;1.05;;
74229;SDS011;62589;12.568;99.958;2023-09-18T12:41:46;2.22;;;0.93;;
74229;SDS011;62589;12.568;99.958;2023-09-18T12:44:13;2.50;;;1.20;;
74229;SDS011;62589;12.568;99.958;2023-09-18T12:46:42;2.47;;;1.35;;
74229;SDS011;62589;12.568;99.958;2023-09-18T12:49:16;1.65;;;1.50;;
74229;SDS011;62589;12.568;99.958;2023-09-18T12:51:44;2.72;;;1.50;;
74229;SDS011;62589;12.568;99.958;2023-09-18T12:54:19;1.75;;;1.40;;
74229;SDS011;62589;12.568;99.958;2023-09-18T12:56:46;3.15;;;2.08;;
74229;SDS011;62589;12.568;99.958;2023-09-18T12:59:12;4.95;;;4.45;;
74229;SDS011;62589;12.568;99.958;2023-09-18T13:01:40;11.30;;;7.03;;
74229;SDS011;62589;12.568;99.958;2023-09-18T13:04:12;14.97;;;9.70;;
74229;SDS011;62589;12.568;99.958;2023-09-18T13:06:38;7.43;;;5.93;;
74229;SDS011;62589;12.568;99.958;2023-09-18T13:11:55;8.70;;;7.20;;
74229;SDS011;62589;12.568;99.958;2023-09-18T13:14:22;9.38;;;5.57;;
74229;SDS011;62589;12.568;99.958;2023-09-18T13:16:50;14.38;;;12.63;;
74229;SDS011;62589;12.568;99.958;2023-09-18T13:19:17;11.68;;;9.00;;
74229;SDS011;62589;12.568;99.958;2023-09-18T13:21:50;10.40;;;6.57;;
74229;SDS011;62589;12.568;99.958;2023-09-18T13:26:56;4.65;;;3.03;;
74229;SDS011;62589;12.568;99.958;2023-09-18T13:29:24;5.07;;;1.90;;
74229;SDS011;62589;12.568;99.958;2023-09-18T13:31:51;2.63;;;2.10;;
74229;SDS011;62589;12.568;99.958;2023-09-18T13:34:17;3.53;;;1.80;;
74229;SDS011;62589;12.568;99.958;2023-09-18T13:36:44;2.97;;;2.13;;
74229;SDS011;62589;12.568;99.958;2023-09-18T13:39:11;4.65;;;2.45;;
74229;SDS011;62589;12.568;99.958;2023-09-18T13:41:39;3.92;;;1.80;;
74229;SDS011;62589;12.568;99.958;2023-09-18T13:44:09;2.85;;;1.70;;
74229;SDS011;62589;12.568;99.958;2023-09-18T13:46:36;1.77;;;1.45;;
74229;SDS011;62589;12.568;99.958;2023-09-18T13:49:03;2.03;;;1.58;;
74229;SDS011;62589;12.568;99.958;2023-09-18T13:51:31;3.58;;;1.25;;
74229;SDS011;62589;12.568;99.958;2023-09-18T13:53:58;3.13;;;2.17;;
74229;SDS011;62589;12.568;99.958;2023-09-18T13:56:25;1.85;;;1.40;;
74229;SDS011;62589;12.568;99.958;2023-09-18T13:58:55;3.25;;;2.20;;
74229;SDS011;62589;12.568;99.958;2023-09-18T14:01:22;4.13;;;2.10;;
74229;SDS011;62589;12.568;99.958;2023-09-18T14:03:53;5.10;;;2.22;;
74229;SDS011;62589;12.568;99.958;2023-09-18T14:06:20;3.78;;;2.10;;
74229;SDS011;62589;12.568;99.958;2023-09-18T14:08:46;2.85;;;1.77;;
74229;SDS011;62589;12.568;99.958;2023-09-18T14:11:13;3.15;;;1.88;;
74229;SDS011;62589;12.568;99.958;2023-09-18T14:13:39;1.88;;;1.40;;
74229;SDS011;62589;12.568;99.958;2023-09-18T14:16:06;3.15;;;2.03;;
74229;SDS011;62589;12.568;99.958;2023-09-18T14:18:33;4.72;;;1.75;;
74229;SDS011;62589;12.568;99.958;2023-09-18T14:21:02;3.72;;;1.92;;
74229;SDS011;62589;12.568;99.958;2023-09-18T14:23:32;4.22;;;1.55;;
74229;SDS011;62589;12.568;99.958;2023-09-18T14:26:02;2.25;;;1.70;;
74229;SDS011;62589;12.568;99.958;2023-09-18T14:28:29;1.63;;;1.25;;
74229;SDS011;62589;12.568;99.958;2023-09-18T14:30:58;1.80;;;1.30;;
74229;SDS011;62589;12.568;99.958;2023-09-18T14:33:31;3.20;;;1.05;;
74229;SDS011;62589;12.568;99.958;2023-09-18T14:35:57;2.03;;;1.13;;
74229;SDS011;62589;12.568;99.958;2023-09-18T14:38:27;1.92;;;1.63;;
74229;SDS011;62589;12.568;99.958;2023-09-18T14:40:54;3.30;;;1.23;;
74229;SDS011;62589;12.568;99.958;2023-09-18T14:43:26;2.40;;;1.10;;
74229;SDS011;62589;12.568;99.958;2023-09-18T14:45:53;1.85;;;1.30;;
74229;SDS011;62589;12.568;99.958;2023-09-18T14:48:24;1.15;;;1.08;;
74229;SDS011;62589;12.568;99.958;2023-09-18T14:50:53;1.90;;;1.38;;
74229;SDS011;62589;12.568;99.958;2023-09-18T14:53:20;2.13;;;1.17;;
74229;SDS011;62589;12.568;99.958;2023-09-18T14:55:47;2.72;;;1.10;;
74229;SDS011;62589;12.568;99.958;2023-09-18T14:58:14;3.60;;;1.33;;
74229;SDS011;62589;12.568;99.958;2023-09-18T15:00:43;1.23;;;1.10;;